Time;durP1;ratioP1;P1;durP2;ratioP2;P2;SDS_P1;SDS_P2;PMS_P1;PMS_P2;Temp;Humidity;BMP_temperature;BMP_pressure;BME280_temperature;BME280_humidity;BME280_pressure;Samples;Min_cycle;Max_cycle;Signal;HPM_P1;HPM_P2
2022/10/29 00:02:15;;;;;;;11.50;8.05;;;24.90;53.20;;;;;;6228803;28;80164;-60
2022/10/29 00:05:16;;;;;;;11.13;7.85;;;24.90;53.10;;;;;;6226048;28;80484;-60
2022/10/29 00:08:16;;;;;;;9.85;7.32;;;24.90;53.10;;;;;;6229329;28;80228;-59
2022/10/29 00:11:19;;;;;;;10.57;7.63;;;24.90;53.10;;;;;;6218125;28;85383;-61
2022/10/29 00:14:20;;;;;;;9.82;7.97;;;24.90;53.10;;;;;;6222684;28;80403;-61
2022/10/29 00:17:20;;;;;;;10.52;7.85;;;24.90;53.00;;;;;;6228452;28;80448;-61
2022/10/29 00:20:21;;;;;;;11.57;7.13;;;24.90;53.10;;;;;;6224826;28;80378;-61
2022/10/29 00:23:21;;;;;;;10.82;8.05;;;24.90;53.10;;;;;;6205257;28;83578;-62
2022/10/29 00:26:22;;;;;;;11.07;8.18;;;24.90;53.10;;;;;;6232063;28;80836;-60
2022/10/29 00:29:22;;;;;;;9.25;7.10;;;24.90;53.00;;;;;;6226330;28;81598;-64
2022/10/29 00:32:23;;;;;;;9.93;6.93;;;24.90;53.10;;;;;;6220929;28;80683;-65
2022/10/29 00:35:25;;;;;;;12.50;7.95;;;24.90;53.10;;;;;;6200241;28;81565;-64
2022/10/29 00:38:26;;;;;;;12.15;7.18;;;24.80;53.00;;;;;;6224390;28;80586;-66
2022/10/29 00:41:26;;;;;;;10.95;7.53;;;24.80;53.00;;;;;;6223235;28;80124;-64
2022/10/29 00:44:27;;;;;;;10.75;6.45;;;24.80;53.00;;;;;;6228076;28;84246;-65
2022/10/29 00:47:27;;;;;;;10.70;7.20;;;24.80;53.00;;;;;;6226711;28;83211;-59
2022/10/29 00:50:28;;;;;;;11.40;7.55;;;24.80;53.00;;;;;;6247910;27;80980;-59
2022/10/29 00:53:28;;;;;;;9.85;7.20;;;24.80;52.90;;;;;;6233261;27;81367;-59
2022/10/29 00:56:29;;;;;;;9.50;6.45;;;24.80;53.00;;;;;;6228106;28;80633;-58
2022/10/29 00:59:29;;;;;;;11.70;7.18;;;24.80;53.00;;;;;;6252914;27;80774;-58
2022/10/29 01:02:29;;;;;;;10.35;7.10;;;24.80;53.00;;;;;;6224246;28;80773;-58
2022/10/29 01:05:30;;;;;;;11.95;7.20;;;24.80;52.90;;;;;;6232287;28;80642;-58
2022/10/29 01:08:31;;;;;;;11.35;7.28;;;24.80;53.20;;;;;;6231498;27;82888;-58
2022/10/29 01:11:31;;;;;;;8.05;6.43;;;24.80;53.00;;;;;;6228565;28;80911;-58
2022/10/29 01:14:32;;;;;;;12.27;7.40;;;24.80;52.90;;;;;;6221828;28;84825;-59
2022/10/29 01:17:32;;;;;;;8.20;6.82;;;24.80;53.00;;;;;;6224603;28;80426;-58
2022/10/29 01:20:33;;;;;;;10.25;7.32;;;24.80;52.80;;;;;;6224912;28;81253;-58
2022/10/29 01:23:33;;;;;;;9.90;7.03;;;24.80;52.80;;;;;;6223863;28;81100;-58
2022/10/29 01:26:34;;;;;;;9.43;6.78;;;24.80;52.90;;;;;;6221289;28;80394;-58
2022/10/29 01:29:34;;;;;;;8.98;7.35;;;24.80;52.80;;;;;;6215963;28;80278;-59
2022/10/29 01:32:35;;;;;;;11.57;7.22;;;24.80;52.80;;;;;;6219842;28;83663;-58
2022/10/29 01:35:35;;;;;;;12.13;7.43;;;24.80;52.80;;;;;;6223936;28;80373;-59
2022/10/29 01:38:36;;;;;;;10.30;7.30;;;24.80;52.80;;;;;;6237712;28;81704;-60
2022/10/29 01:41:36;;;;;;;8.57;6.97;;;24.80;52.80;;;;;;6229324;28;81338;-64
2022/10/29 01:44:37;;;;;;;9.02;6.78;;;24.80;52.80;;;;;;6238219;27;81343;-65
2022/10/29 01:47:37;;;;;;;10.93;7.43;;;24.80;52.80;;;;;;6219531;28;83032;-66
2022/10/29 01:50:38;;;;;;;10.35;7.78;;;24.80;52.80;;;;;;6227969;28;80673;-66
2022/10/29 01:53:38;;;;;;;11.30;7.20;;;24.80;52.70;;;;;;6223290;28;81051;-66
2022/10/29 01:56:39;;;;;;;10.93;7.47;;;24.80;52.70;;;;;;6221957;28;83150;-66
2022/10/29 01:59:39;;;;;;;10.60;7.43;;;24.80;52.60;;;;;;6222585;28;81409;-61
2022/10/29 02:02:40;;;;;;;9.40;6.97;;;24.80;52.60;;;;;;6224001;28;80221;-61
2022/10/29 02:05:40;;;;;;;12.65;7.38;;;24.80;52.70;;;;;;6225482;28;80532;-60
2022/10/29 02:08:41;;;;;;;9.60;7.25;;;24.80;52.60;;;;;;6233889;28;80854;-60
2022/10/29 02:11:41;;;;;;;10.50;7.75;;;24.80;52.70;;;;;;6233033;27;80597;-61
2022/10/29 02:14:42;;;;;;;10.82;7.10;;;24.80;52.80;;;;;;6223567;28;80755;-60
2022/10/29 02:17:42;;;;;;;10.85;7.00;;;24.80;52.80;;;;;;6238545;28;83851;-65
2022/10/29 02:20:43;;;;;;;11.95;7.53;;;24.70;52.70;;;;;;6227817;27;80279;-61
2022/10/29 02:23:43;;;;;;;10.30;7.05;;;24.70;52.70;;;;;;6220942;28;81460;-61
2022/10/29 02:26:44;;;;;;;8.27;6.60;;;24.70;52.50;;;;;;6224210;28;80279;-61
2022/10/29 02:29:44;;;;;;;10.13;6.47;;;24.70;52.50;;;;;;6226691;28;80327;-61
2022/10/29 02:32:45;;;;;;;7.65;6.28;;;24.70;52.50;;;;;;6220170;28;83126;-61
2022/10/29 02:35:45;;;;;;;8.73;6.72;;;24.70;52.50;;;;;;6222338;28;80649;-61
2022/10/29 02:38:46;;;;;;;11.70;6.82;;;24.70;52.40;;;;;;6222107;28;84851;-60
2022/10/29 02:41:46;;;;;;;9.10;6.78;;;24.70;52.40;;;;;;6223865;28;80137;-61
2022/10/29 02:44:47;;;;;;;10.23;6.45;;;24.70;52.40;;;;;;6222918;28;81365;-61
2022/10/29 02:47:47;;;;;;;8.77;6.47;;;24.70;52.30;;;;;;6222501;28;84962;-61
2022/10/29 02:50:48;;;;;;;10.45;6.78;;;24.70;52.30;;;;;;6222489;28;81102;-62
2022/10/29 02:53:48;;;;;;;9.15;6.38;;;24.70;52.40;;;;;;6224396;28;81543;-62
2022/10/29 02:56:49;;;;;;;9.70;6.22;;;24.70;52.30;;;;;;6223161;28;84599;-61
2022/10/29 02:59:49;;;;;;;10.38;6.70;;;24.70;52.40;;;;;;6224300;28;80574;-60
2022/10/29 03:02:50;;;;;;;10.05;6.93;;;24.70;52.30;;;;;;6222950;28;86306;-60
2022/10/29 03:05:50;;;;;;;9.55;6.97;;;24.70;52.20;;;;;;6222536;28;80542;-59
2022/10/29 03:08:51;;;;;;;9.55;6.10;;;24.70;52.20;;;;;;6229335;28;80085;-60
2022/10/29 03:11:51;;;;;;;10.05;6.68;;;24.70;52.20;;;;;;6219097;28;80890;-60
2022/10/29 03:14:52;;;;;;;9.95;6.85;;;24.70;52.10;;;;;;6223988;28;84391;-59
2022/10/29 03:17:52;;;;;;;9.02;6.45;;;24.70;52.20;;;;;;6237964;28;81639;-59
2022/10/29 03:20:53;;;;;;;8.85;6.85;;;24.70;52.10;;;;;;6225366;28;80755;-60
2022/10/29 03:23:53;;;;;;;11.18;6.60;;;24.70;52.10;;;;;;6217995;28;82752;-59
2022/10/29 03:26:54;;;;;;;8.25;6.40;;;24.70;52.10;;;;;;6223422;28;83825;-59
2022/10/29 03:29:54;;;;;;;9.00;6.68;;;24.70;52.10;;;;;;6223470;28;80811;-58
2022/10/29 03:32:55;;;;;;;8.10;6.03;;;24.70;52.00;;;;;;6223305;28;83863;-56
2022/10/29 03:35:55;;;;;;;8.07;6.43;;;24.70;52.00;;;;;;6229574;28;81207;-56
2022/10/29 03:38:56;;;;;;;9.10;6.57;;;24.70;52.00;;;;;;6242461;28;86260;-55
2022/10/29 03:41:56;;;;;;;9.95;6.82;;;24.80;52.10;;;;;;6223051;28;80579;-54
2022/10/29 03:44:57;;;;;;;7.85;5.95;;;24.80;52.00;;;;;;6217979;27;82268;-53
2022/10/29 03:47:57;;;;;;;8.27;5.72;;;24.80;52.00;;;;;;6222743;28;80510;-55
2022/10/29 03:50:58;;;;;;;7.88;5.95;;;24.80;52.10;;;;;;6220638;28;83885;-61
2022/10/29 03:53:59;;;;;;;7.65;5.35;;;24.80;52.10;;;;;;6225070;28;81409;-61
2022/10/29 03:56:59;;;;;;;7.05;5.32;;;24.80;52.10;;;;;;6226599;28;80690;-60
2022/10/29 04:00:00;;;;;;;7.30;5.22;;;24.90;52.20;;;;;;6228524;28;80573;-62
2022/10/29 04:03:01;;;;;;;7.05;5.43;;;24.90;52.20;;;;;;6223449;27;81159;-59
2022/10/29 04:06:01;;;;;;;6.82;5.22;;;24.90;52.30;;;;;;6229455;28;80553;-59
2022/10/29 04:09:02;;;;;;;8.93;4.90;;;24.90;52.60;;;;;;6220195;28;80532;-70
2022/10/29 04:12:03;;;;;;;9.15;5.00;;;24.90;52.60;;;;;;6209289;28;81543;-74
2022/10/29 04:15:03;;;;;;;8.27;5.25;;;24.90;52.90;;;;;;6215518;28;81522;-68
2022/10/29 04:18:04;;;;;;;8.07;5.32;;;25.00;52.90;;;;;;6205995;27;80245;-68
2022/10/29 04:21:04;;;;;;;9.00;5.13;;;25.00;52.80;;;;;;6208164;28;80830;-73
2022/10/29 04:24:05;;;;;;;41.10;5.20;;;25.00;52.90;;;;;;6219516;28;80407;-70
2022/10/29 04:27:05;;;;;;;14.90;5.30;;;25.00;52.90;;;;;;6228557;27;80992;-61
2022/10/29 04:30:07;;;;;;;10.85;5.22;;;25.00;52.70;;;;;;6200740;28;81485;-61
2022/10/29 04:33:07;;;;;;;6.82;5.00;;;25.00;52.70;;;;;;6213776;28;83718;-59
2022/10/29 04:36:08;;;;;;;10.60;5.10;;;25.00;52.60;;;;;;6222852;28;80783;-59
2022/10/29 04:39:08;;;;;;;8.90;5.30;;;25.00;52.60;;;;;;6219935;28;82144;-60
2022/10/29 04:42:09;;;;;;;7.50;5.25;;;25.00;52.50;;;;;;6221205;28;80648;-60
2022/10/29 04:45:09;;;;;;;10.57;4.63;;;25.00;52.50;;;;;;6218020;28;81338;-59
2022/10/29 04:48:10;;;;;;;7.00;5.45;;;25.00;52.60;;;;;;6212665;28;80428;-60
2022/10/29 04:51:10;;;;;;;9.40;5.35;;;25.00;52.40;;;;;;6216650;28;80611;-57
2022/10/29 04:54:11;;;;;;;15.95;5.72;;;25.00;52.30;;;;;;6214030;28;80322;-58
2022/10/29 04:57:11;;;;;;;8.70;5.07;;;25.00;52.60;;;;;;6212754;28;87384;-59
2022/10/29 05:00:12;;;;;;;8.02;5.63;;;25.00;52.60;;;;;;6214542;28;80691;-59
2022/10/29 05:03:12;;;;;;;13.50;5.43;;;25.10;52.80;;;;;;6204132;28;82963;-59
2022/10/29 05:06:13;;;;;;;7.05;4.57;;;25.00;53.00;;;;;;6220828;28;82046;-56
2022/10/29 05:09:13;;;;;;;16.48;5.80;;;25.10;53.10;;;;;;6210835;28;81368;-54
2022/10/29 05:12:14;;;;;;;6.38;4.97;;;25.10;53.40;;;;;;6215152;28;80605;-60
2022/10/29 05:15:14;;;;;;;11.52;5.53;;;25.10;53.30;;;;;;6216620;28;81278;-58
2022/10/29 05:18:15;;;;;;;12.30;5.60;;;25.10;53.80;;;;;;6219821;28;80916;-60
2022/10/29 05:21:15;;;;;;;6.30;5.38;;;25.10;53.00;;;;;;6226414;28;80573;-60
2022/10/29 05:24:16;;;;;;;12.55;5.78;;;25.10;52.90;;;;;;6229518;28;80360;-59
2022/10/29 05:27:16;;;;;;;8.93;5.95;;;25.00;52.70;;;;;;6218151;28;80485;-58
2022/10/29 05:30:17;;;;;;;7.35;5.78;;;25.00;52.70;;;;;;6212980;28;80620;-59
2022/10/29 05:33:17;;;;;;;6.82;5.72;;;25.00;52.70;;;;;;6212987;28;87444;-59
2022/10/29 05:36:18;;;;;;;7.80;5.85;;;25.10;52.90;;;;;;6213424;28;81289;-59
2022/10/29 05:39:18;;;;;;;8.98;5.70;;;25.00;53.00;;;;;;6220130;28;82029;-59
2022/10/29 05:42:19;;;;;;;9.30;5.82;;;25.10;53.10;;;;;;6209673;28;80991;-57
2022/10/29 05:45:19;;;;;;;9.48;5.90;;;25.10;53.30;;;;;;6211473;28;83232;-58
2022/10/29 05:48:20;;;;;;;10.10;6.07;;;25.10;53.50;;;;;;6214176;28;80507;-59
2022/10/29 05:51:20;;;;;;;7.85;4.97;;;25.10;53.20;;;;;;6215552;28;80235;-57
2022/10/29 05:54:21;;;;;;;8.75;5.75;;;25.10;53.30;;;;;;6209832;28;80935;-57
2022/10/29 05:57:21;;;;;;;19.65;5.80;;;25.10;53.30;;;;;;6218673;28;80792;-59
2022/10/29 06:00:22;;;;;;;11.60;5.50;;;25.10;53.40;;;;;;6214073;28;80995;-54
2022/10/29 06:03:22;;;;;;;8.02;6.05;;;25.10;53.40;;;;;;6209336;28;81154;-52
2022/10/29 06:06:23;;;;;;;8.88;5.32;;;25.10;53.20;;;;;;6212537;28;80997;-51
2022/10/29 06:09:23;;;;;;;8.43;5.90;;;25.10;53.20;;;;;;6198748;28;81627;-53
2022/10/29 06:12:24;;;;;;;16.85;5.30;;;25.20;53.30;;;;;;6214211;28;81003;-55
2022/10/29 06:15:24;;;;;;;9.55;5.28;;;25.20;53.10;;;;;;6219028;28;81624;-59
2022/10/29 06:18:25;;;;;;;7.68;5.68;;;25.20;52.90;;;;;;6218789;28;81175;-60
2022/10/29 06:21:25;;;;;;;12.10;4.78;;;25.20;53.10;;;;;;6222958;28;80397;-59
2022/10/29 06:24:26;;;;;;;8.75;5.03;;;25.20;52.90;;;;;;6206745;28;80997;-57
2022/10/29 06:27:26;;;;;;;7.07;5.22;;;25.20;52.80;;;;;;6214184;28;85707;-60
2022/10/29 06:30:27;;;;;;;8.48;5.07;;;25.20;52.80;;;;;;6206824;28;81047;-60
2022/10/29 06:33:28;;;;;;;12.57;6.00;;;25.20;52.80;;;;;;6200274;28;80655;-59
2022/10/29 06:36:28;;;;;;;7.65;4.60;;;25.10;52.80;;;;;;6213039;28;80354;-67
2022/10/29 06:39:29;;;;;;;12.85;5.32;;;25.10;52.80;;;;;;6218656;28;81807;-68
2022/10/29 06:42:29;;;;;;;9.70;5.43;;;25.20;52.80;;;;;;6223382;28;80630;-67
2022/10/29 06:45:30;;;;;;;8.90;4.85;;;25.10;52.80;;;;;;6222563;28;87043;-68
2022/10/29 06:48:30;;;;;;;8.13;5.53;;;25.20;53.00;;;;;;6212149;28;80615;-70
2022/10/29 06:51:31;;;;;;;6.70;5.20;;;25.10;52.90;;;;;;6216648;28;80370;-63
2022/10/29 06:54:31;;;;;;;9.27;4.88;;;25.10;52.80;;;;;;6196911;28;80804;-60
2022/10/29 06:57:32;;;;;;;16.88;8.35;;;25.10;52.70;;;;;;6197063;28;81883;-60
2022/10/29 07:00:32;;;;;;;68.60;42.03;;;25.10;52.90;;;;;;6208969;28;81651;-61
2022/10/29 07:03:33;;;;;;;88.20;49.47;;;25.10;53.10;;;;;;6220806;28;82900;-65
2022/10/29 07:06:33;;;;;;;100.93;57.90;;;25.10;52.60;;;;;;6219188;28;83928;-62
2022/10/29 07:09:34;;;;;;;111.75;69.88;;;25.10;52.70;;;;;;6219139;28;83223;-61
2022/10/29 07:12:34;;;;;;;116.18;64.38;;;25.20;52.70;;;;;;6216230;28;85367;-68
2022/10/29 07:15:35;;;;;;;133.98;77.20;;;25.10;51.90;;;;;;6209155;28;83250;-60
2022/10/29 07:18:35;;;;;;;117.82;64.85;;;25.00;51.70;;;;;;6206385;28;84587;-62
2022/10/29 07:21:36;;;;;;;79.18;48.05;;;25.00;51.50;;;;;;6217570;28;83677;-63
2022/10/29 07:24:36;;;;;;;64.63;36.28;;;25.00;51.20;;;;;;6211982;28;83478;-64
2022/10/29 07:27:37;;;;;;;50.40;29.02;;;25.00;51.00;;;;;;6207218;28;84691;-63
2022/10/29 07:30:37;;;;;;;44.75;24.27;;;25.00;51.00;;;;;;6213717;28;83606;-63
2022/10/29 07:33:38;;;;;;;35.75;20.63;;;25.00;50.80;;;;;;6214257;28;83417;-61
2022/10/29 07:36:38;;;;;;;26.55;17.83;;;25.10;50.70;;;;;;6212426;28;84126;-60
2022/10/29 07:39:39;;;;;;;22.48;13.82;;;25.10;50.70;;;;;;6181185;28;87472;-60
2022/10/29 07:42:39;;;;;;;19.23;12.50;;;25.20;50.70;;;;;;6208225;28;82958;-60
2022/10/29 07:45:40;;;;;;;18.33;11.32;;;25.20;50.60;;;;;;6208796;28;83249;-61
2022/10/29 07:48:41;;;;;;;19.08;11.45;;;25.20;50.60;;;;;;6188566;28;83110;-60
2022/10/29 07:51:41;;;;;;;14.77;9.73;;;25.30;50.70;;;;;;6194964;28;83722;-60
2022/10/29 07:54:42;;;;;;;15.88;9.05;;;25.20;50.30;;;;;;6202314;28;87090;-60
2022/10/29 07:57:42;;;;;;;15.52;9.18;;;25.20;50.00;;;;;;6198757;28;84013;-56
2022/10/29 08:00:43;;;;;;;15.73;8.80;;;25.20;49.80;;;;;;6207470;28;86360;-55
2022/10/29 08:03:43;;;;;;;15.35;8.52;;;25.20;49.90;;;;;;6215458;28;81259;-60
2022/10/29 08:06:44;;;;;;;18.50;7.88;;;25.20;50.20;;;;;;6211084;28;80557;-59
2022/10/29 08:09:44;;;;;;;14.52;7.93;;;25.20;50.40;;;;;;6216954;28;80879;-59
2022/10/29 08:12:45;;;;;;;21.33;9.25;;;25.20;50.30;;;;;;6220460;28;80814;-59
2022/10/29 08:15:45;;;;;;;21.23;8.65;;;25.10;50.20;;;;;;6226580;28;80357;-58
2022/10/29 08:18:46;;;;;;;19.48;8.73;;;25.10;50.30;;;;;;6222799;28;81086;-58
2022/10/29 08:21:46;;;;;;;16.63;7.22;;;25.20;50.20;;;;;;6204631;28;80562;-61
2022/10/29 08:24:47;;;;;;;14.25;7.55;;;25.20;50.10;;;;;;6222806;28;81372;-59
2022/10/29 08:27:47;;;;;;;13.20;7.40;;;25.30;50.00;;;;;;6223046;28;80427;-60
2022/10/29 08:30:48;;;;;;;20.08;7.72;;;25.30;49.80;;;;;;6229810;28;81197;-63
2022/10/29 08:33:49;;;;;;;17.80;7.32;;;25.30;50.10;;;;;;6209147;28;80671;-62
2022/10/29 08:36:49;;;;;;;13.38;7.40;;;25.30;50.30;;;;;;6213823;28;80256;-62
2022/10/29 08:39:50;;;;;;;14.98;8.02;;;25.30;50.40;;;;;;6228760;28;80788;-63
2022/10/29 08:42:50;;;;;;;12.80;7.57;;;25.30;50.40;;;;;;6227211;28;80813;-63
2022/10/29 08:45:51;;;;;;;17.05;7.97;;;25.30;50.60;;;;;;6222408;28;81020;-75
2022/10/29 08:48:51;;;;;;;22.20;7.25;;;25.30;50.30;;;;;;6227866;28;80240;-72
2022/10/29 08:51:52;;;;;;;17.73;8.50;;;25.40;50.40;;;;;;6224976;28;83635;-72
2022/10/29 08:54:52;;;;;;;21.77;7.90;;;25.40;50.10;;;;;;6227196;28;80618;-70
2022/10/29 08:57:53;;;;;;;10.50;6.22;;;25.50;50.60;;;;;;6228405;28;81355;-71
2022/10/29 09:00:53;;;;;;;11.38;6.22;;;25.60;50.70;;;;;;6211390;28;82523;-65
2022/10/29 09:03:54;;;;;;;14.15;7.53;;;25.70;50.40;;;;;;6226218;28;80562;-57
2022/10/29 09:06:54;;;;;;;17.13;6.93;;;25.70;49.90;;;;;;6225739;28;80494;-58
2022/10/29 09:09:55;;;;;;;10.52;5.70;;;25.70;50.00;;;;;;6222299;28;80881;-58
2022/10/29 09:12:55;;;;;;;12.70;6.55;;;25.70;49.80;;;;;;6217464;28;80281;-57
2022/10/29 09:15:56;;;;;;;8.93;5.60;;;25.80;49.70;;;;;;6228043;28;85016;-59
2022/10/29 09:18:57;;;;;;;9.82;5.53;;;25.90;49.70;;;;;;6221197;28;80358;-57
2022/10/29 09:21:57;;;;;;;8.80;5.57;;;26.00;49.60;;;;;;6210747;28;81341;-62
2022/10/29 09:24:58;;;;;;;9.07;5.95;;;26.00;49.40;;;;;;6206462;28;81014;-67
2022/10/29 09:27:58;;;;;;;9.75;5.28;;;26.10;49.50;;;;;;6217493;28;87628;-64
2022/10/29 09:30:59;;;;;;;13.57;4.90;;;26.20;49.30;;;;;;6214880;28;80565;-63
2022/10/29 09:34:00;;;;;;;8.43;5.18;;;26.20;49.10;;;;;;6221814;28;85530;-62
2022/10/29 09:37:00;;;;;;;8.43;4.72;;;26.30;48.90;;;;;;6215636;28;80515;-63
2022/10/29 09:40:00;;;;;;;7.60;5.07;;;26.40;49.50;;;;;;6238246;27;80638;-64
2022/10/29 09:43:01;;;;;;;9.55;5.10;;;26.50;48.70;;;;;;6238919;28;81250;-62
2022/10/29 09:46:01;;;;;;;9.75;5.45;;;26.50;48.70;;;;;;6230400;28;80566;-60
2022/10/29 09:49:02;;;;;;;13.57;5.05;;;26.60;48.70;;;;;;6246221;27;80981;-60
2022/10/29 09:52:02;;;;;;;10.05;4.60;;;26.70;48.60;;;;;;6249238;27;80307;-63
2022/10/29 09:55:03;;;;;;;6.68;4.75;;;26.70;48.60;;;;;;6233511;27;80971;-62
2022/10/29 09:58:03;;;;;;;10.13;5.38;;;26.70;48.60;;;;;;6246191;27;80214;-59
2022/10/29 10:01:04;;;;;;;9.88;4.82;;;26.70;48.20;;;;;;6239671;28;83937;-60
2022/10/29 10:16:26;;;;;;;13.98;5.07;;;26.60;48.20;;;;;;6221022;28;76748;-68
2022/10/29 10:19:26;;;;;;;12.55;4.82;;;26.70;48.10;;;;;;6206464;28;83408;-68
2022/10/29 10:22:27;;;;;;;8.10;4.78;;;26.60;47.80;;;;;;6190174;28;80950;-68
2022/10/29 10:25:27;;;;;;;9.43;4.85;;;26.60;48.50;;;;;;6194074;28;80588;-68
2022/10/29 10:28:34;;;;;;;17.25;4.60;;;26.60;48.10;;;;;;6213008;28;80721;-71
2022/10/29 10:31:35;;;;;;;11.05;4.38;;;26.60;48.30;;;;;;6212790;27;81728;-69
2022/10/29 10:34:35;;;;;;;11.13;4.95;;;26.50;48.00;;;;;;6177084;28;81598;-59
2022/10/29 10:37:36;;;;;;;8.48;5.07;;;26.60;48.60;;;;;;6188253;28;85697;-58
2022/10/29 10:40:36;;;;;;;9.90;4.80;;;26.60;48.20;;;;;;6194217;28;84868;-58
2022/10/29 10:43:37;;;;;;;8.23;4.95;;;26.70;48.50;;;;;;6197612;28;80077;-57
2022/10/29 10:46:37;;;;;;;14.90;4.50;;;26.80;49.80;;;;;;6225854;28;84785;-58
2022/10/29 10:49:38;;;;;;;11.13;4.47;;;26.90;49.50;;;;;;6197943;28;80773;-59
2022/10/29 10:52:38;;;;;;;7.97;4.78;;;26.90;49.00;;;;;;6196600;28;82399;-64
2022/10/29 10:55:39;;;;;;;8.73;4.10;;;26.90;48.30;;;;;;6194686;28;80509;-64
2022/10/29 10:58:39;;;;;;;7.20;3.58;;;26.90;48.10;;;;;;6209302;28;80328;-64
2022/10/29 11:01:40;;;;;;;8.05;4.22;;;26.90;47.50;;;;;;6209466;28;80330;-67
2022/10/29 11:04:41;;;;;;;9.10;4.45;;;26.90;47.10;;;;;;6193210;28;81087;-65
2022/10/29 11:07:41;;;;;;;12.30;4.82;;;26.90;46.80;;;;;;6186497;28;80902;-67
2022/10/29 11:10:42;;;;;;;17.75;4.65;;;26.90;47.00;;;;;;6174595;28;80218;-71
2022/10/29 11:13:42;;;;;;;13.40;4.35;;;26.80;47.20;;;;;;6185649;28;81529;-74
2022/10/29 11:16:43;;;;;;;16.95;4.18;;;26.80;47.90;;;;;;6175382;28;83425;-74
2022/10/29 11:19:43;;;;;;;19.42;5.15;;;26.80;48.70;;;;;;6196118;28;85231;-71
2022/10/29 11:22:44;;;;;;;78.85;14.65;;;26.70;48.10;;;;;;6197313;28;80994;-77
2022/10/29 11:25:44;;;;;;;27.10;6.28;;;26.60;48.50;;;;;;6197016;28;84947;-78
2022/10/29 11:28:45;;;;;;;23.63;7.07;;;26.60;48.40;;;;;;6199757;28;82477;-59
2022/10/29 11:31:45;;;;;;;19.42;6.40;;;26.60;48.50;;;;;;6193969;28;81634;-59
2022/10/29 11:34:46;;;;;;;17.98;6.07;;;26.70;48.80;;;;;;6190706;28;81157;-58
2022/10/29 11:37:46;;;;;;;15.48;5.65;;;26.80;48.70;;;;;;6182531;28;82743;-59
2022/10/29 11:40:47;;;;;;;16.60;5.45;;;26.80;48.40;;;;;;6164789;28;80465;-59
2022/10/29 11:43:47;;;;;;;16.40;5.68;;;26.90;48.50;;;;;;6171374;28;81123;-58
2022/10/29 11:46:48;;;;;;;10.43;4.68;;;27.00;48.50;;;;;;6173704;28;80659;-55
2022/10/29 11:49:49;;;;;;;9.43;4.47;;;27.10;48.80;;;;;;6172997;28;81022;-57
2022/10/29 11:52:49;;;;;;;12.18;5.00;;;27.10;48.50;;;;;;6173621;28;80928;-58
2022/10/29 11:55:50;;;;;;;11.30;3.97;;;27.10;48.50;;;;;;6174325;28;82881;-58
2022/10/29 11:58:50;;;;;;;12.63;4.13;;;27.10;48.40;;;;;;6167167;28;80329;-59
2022/10/29 12:01:51;;;;;;;13.73;4.50;;;27.10;48.30;;;;;;6161853;28;86564;-58
2022/10/29 12:04:51;;;;;;;14.65;5.03;;;27.10;48.10;;;;;;6163537;28;82489;-58
2022/10/29 12:07:52;;;;;;;9.98;5.25;;;27.10;48.20;;;;;;6161274;28;81058;-58
2022/10/29 12:10:52;;;;;;;12.73;5.07;;;27.10;48.10;;;;;;6163939;28;81705;-58
2022/10/29 12:13:53;;;;;;;10.45;4.90;;;27.10;48.50;;;;;;6161648;28;80756;-59
2022/10/29 12:16:53;;;;;;;14.27;5.60;;;27.10;48.60;;;;;;6172816;28;81192;-58
2022/10/29 12:19:54;;;;;;;19.17;4.72;;;27.10;48.70;;;;;;6174626;28;80496;-57
2022/10/29 12:22:54;;;;;;;13.25;5.13;;;27.20;49.60;;;;;;6180247;28;80066;-57
2022/10/29 12:25:55;;;;;;;18.15;4.95;;;27.20;49.50;;;;;;6178936;28;81072;-57
2022/10/29 12:28:57;;;;;;;11.40;4.70;;;27.30;49.60;;;;;;6177021;28;80521;-54
2022/10/29 12:31:58;;;;;;;24.17;6.53;;;27.40;49.40;;;;;;6194021;28;80614;-57
2022/10/29 12:35:02;;;;;;;10.93;4.95;;;27.40;49.60;;;;;;6195519;28;81068;-54
2022/10/29 12:38:02;;;;;;;9.80;4.72;;;27.40;49.10;;;;;;6194758;28;84825;-56
2022/10/29 12:41:03;;;;;;;8.25;4.85;;;27.40;49.10;;;;;;6188691;28;81265;-56
2022/10/29 12:44:03;;;;;;;16.80;4.70;;;27.40;48.80;;;;;;6170209;28;80418;-68
2022/10/29 12:47:04;;;;;;;12.43;5.22;;;27.40;48.50;;;;;;6175715;28;85327;-67
2022/10/29 12:50:04;;;;;;;12.13;4.65;;;27.40;48.30;;;;;;6187200;28;80005;-68
2022/10/29 12:53:05;;;;;;;16.25;4.90;;;27.30;48.40;;;;;;6159808;28;83517;-69
2022/10/29 12:56:05;;;;;;;10.35;5.10;;;27.30;48.30;;;;;;6189462;28;84406;-67
2022/10/29 12:59:06;;;;;;;25.33;5.28;;;27.30;48.00;;;;;;6160785;28;80563;-68
2022/10/29 13:02:06;;;;;;;8.65;4.53;;;27.30;48.20;;;;;;6168064;28;85553;-70
2022/10/29 13:05:10;;;;;;;17.00;5.53;;;27.30;48.40;;;;;;6167510;28;81106;-73
2022/10/29 13:08:11;;;;;;;13.80;5.32;;;27.30;48.50;;;;;;6152756;28;81633;-73
2022/10/29 13:11:11;;;;;;;14.40;5.38;;;27.30;48.40;;;;;;6149161;28;80474;-75
2022/10/29 13:14:12;;;;;;;13.93;5.20;;;27.40;48.30;;;;;;6171077;28;81389;-73
2022/10/29 13:17:12;;;;;;;15.02;6.15;;;27.50;48.40;;;;;;6186427;28;85236;-61
2022/10/29 13:20:13;;;;;;;19.27;5.25;;;27.50;48.60;;;;;;6189355;28;81932;-76
2022/10/29 13:23:13;;;;;;;15.85;4.70;;;27.50;48.50;;;;;;6198552;28;80900;-71
2022/10/29 13:26:14;;;;;;;12.25;5.35;;;27.50;48.40;;;;;;6203403;28;86960;-81
2022/10/29 13:29:14;;;;;;;15.90;5.32;;;27.40;48.20;;;;;;6208260;28;80848;-71
2022/10/29 13:32:15;;;;;;;12.48;5.05;;;27.40;48.10;;;;;;6197484;28;83180;-68
2022/10/29 13:35:15;;;;;;;12.77;5.53;;;27.30;47.90;;;;;;6206114;28;86707;-75
2022/10/29 13:38:16;;;;;;;21.73;5.00;;;27.20;47.70;;;;;;6184352;28;80817;-56
2022/10/29 13:41:16;;;;;;;20.08;5.57;;;27.30;48.00;;;;;;6189099;28;80817;-58
2022/10/29 13:44:17;;;;;;;11.73;5.28;;;27.30;47.90;;;;;;6172153;28;80391;-60
2022/10/29 13:47:17;;;;;;;10.68;4.88;;;27.30;47.80;;;;;;6181389;28;81687;-59
2022/10/29 13:50:18;;;;;;;19.27;5.95;;;27.30;47.50;;;;;;6176127;28;80736;-57
2022/10/29 13:53:18;;;;;;;17.10;5.68;;;27.40;47.70;;;;;;6173626;28;80588;-59
2022/10/29 13:56:19;;;;;;;12.90;4.78;;;27.30;47.30;;;;;;6192717;28;81017;-54
2022/10/29 13:59:19;;;;;;;17.40;4.90;;;27.40;47.30;;;;;;6182875;28;86965;-54
2022/10/29 14:02:20;;;;;;;13.48;4.20;;;27.50;47.20;;;;;;6177225;28;80924;-56
2022/10/29 14:05:21;;;;;;;20.00;5.20;;;27.50;47.00;;;;;;6183286;28;81002;-52
2022/10/29 14:08:21;;;;;;;14.85;5.65;;;27.40;47.10;;;;;;6183523;28;80429;-56
2022/10/29 14:11:22;;;;;;;14.30;5.32;;;27.40;47.10;;;;;;6169511;28;84538;-55
2022/10/29 14:14:22;;;;;;;13.35;5.50;;;27.30;47.00;;;;;;6182668;28;80645;-54
2022/10/29 14:17:23;;;;;;;12.48;5.70;;;27.20;47.30;;;;;;6188874;28;80963;-57
2022/10/29 14:20:23;;;;;;;14.10;4.95;;;27.10;47.30;;;;;;6169931;28;81202;-56
2022/10/29 14:23:24;;;;;;;14.65;5.05;;;26.90;47.60;;;;;;6174825;28;81023;-58
2022/10/29 14:26:24;;;;;;;12.93;5.45;;;26.80;48.20;;;;;;6174056;28;80862;-57
2022/10/29 14:29:25;;;;;;;17.17;6.20;;;26.80;48.40;;;;;;6173593;28;80573;-54
2022/10/29 14:32:25;;;;;;;14.57;5.72;;;26.70;48.70;;;;;;6172672;28;80933;-56
2022/10/29 14:35:26;;;;;;;13.63;5.30;;;26.60;48.60;;;;;;6162018;28;80423;-57
2022/10/29 14:38:26;;;;;;;13.55;5.35;;;26.50;48.70;;;;;;6178653;28;80433;-58
2022/10/29 14:41:27;;;;;;;30.25;12.80;;;26.50;48.80;;;;;;6186717;28;80745;-58
2022/10/29 14:44:27;;;;;;;50.65;24.02;;;26.40;49.00;;;;;;6168348;28;83335;-58
2022/10/29 14:47:28;;;;;;;61.58;32.55;;;26.40;48.90;;;;;;6170027;28;83351;-58
2022/10/29 14:50:28;;;;;;;100.47;52.67;;;26.30;48.90;;;;;;6176376;28;90005;-58
2022/10/29 14:53:29;;;;;;;94.75;49.63;;;26.20;49.00;;;;;;6163618;28;83043;-60
2022/10/29 14:56:30;;;;;;;139.70;70.97;;;26.20;49.30;;;;;;6168277;28;88730;-59
2022/10/29 14:59:30;;;;;;;90.97;47.78;;;26.10;49.30;;;;;;6174781;28;84015;-59
2022/10/29 15:02:31;;;;;;;67.60;33.00;;;26.10;49.50;;;;;;6175350;28;88441;-59
2022/10/29 15:05:31;;;;;;;60.72;27.92;;;26.10;49.40;;;;;;6175371;28;83133;-58
2022/10/29 15:08:33;;;;;;;43.20;21.85;;;26.10;49.50;;;;;;6172701;28;83228;-58
2022/10/29 15:11:33;;;;;;;44.50;21.73;;;26.00;49.40;;;;;;6176195;28;88867;-68
2022/10/29 15:14:35;;;;;;;36.67;18.08;;;25.90;49.70;;;;;;6182113;28;89756;-70
2022/10/29 15:17:36;;;;;;;35.70;16.45;;;25.90;49.70;;;;;;6173908;28;83562;-68
2022/10/29 15:20:36;;;;;;;31.42;14.52;;;25.90;49.80;;;;;;6174208;28;83046;-71
2022/10/29 15:23:37;;;;;;;27.42;11.98;;;25.80;49.80;;;;;;6186551;28;83922;-68
2022/10/29 15:26:37;;;;;;;26.00;11.30;;;25.70;50.00;;;;;;6170889;28;83445;-71
2022/10/29 15:29:38;;;;;;;21.88;10.65;;;25.70;50.10;;;;;;6201722;28;83611;-58
2022/10/29 15:32:39;;;;;;;20.10;10.15;;;25.60;50.20;;;;;;6165339;28;83198;-58
2022/10/29 15:35:40;;;;;;;17.10;9.35;;;25.60;50.20;;;;;;6168224;28;83192;-58
2022/10/29 15:38:40;;;;;;;19.85;8.52;;;25.60;50.20;;;;;;6165964;28;83133;-59
2022/10/29 15:41:41;;;;;;;15.75;9.02;;;25.60;50.20;;;;;;6175333;28;81334;-59